22 de maio de 2022

Tempo Código Clima Temp. Visão Nuvens Vento METAR/SPECI
07:55
V
21 °C 10 km+ - 010°   010° 3 kt METAR LIPI 220555Z 01003KT CAVOK 21/16 Q1014 RMK SKC VIS MIN 9999 WIND THR06 05004KT WIND THR24 03003KT BLU
06:55
V
17 °C 10 km+ - 340°   340° 2 kt METAR LIPI 220455Z 34002KT CAVOK 17/16 Q1013 RMK SKC VIS MIN 9999 WIND THR06 03002KT WIND THR24 35002KT BLU
05:55
V
15 °C 10 km+ - 340°   340° 2 kt METAR LIPI 220355Z 34002KT CAVOK 15/14 Q1013 RMK SKC VIS MIN 9999 WIND THR06 03002KT WIND THR24 02002KT BLU
04:55
V
16 °C 10 km+ - 100°   100° 3 kt METAR LIPI 220255Z 10003KT CAVOK 16/15 Q1013 RMK SKC VIS MIN 9999 WIND THR06 05002KT WIND THR24 10002KT BLU
03:55
V
17 °C 10 km+ - 320°   320° 1 kt METAR LIPI 220155Z 32001KT CAVOK 17/15 Q1013 RMK SKC VIS MIN 9999 WIND THR06 35001KT WIND THR24 VRB02KT BLU
02:55
V
17 °C 10 km+ - 340°   340° 5 kt METAR LIPI 220055Z 34005KT CAVOK 17/16 Q1013 RMK SKC VIS MIN 9999 WIND THR06 02005KT WIND THR24 01003KT BLU
01:55
V
18 °C 10 km+ - 360°   360° 3 kt METAR LIPI 212355Z 36003KT CAVOK 18/17 Q1014 RMK SCT SCT200 VIS MIN 9999 WIND THR06 04004KT WIND THR24 03003KT BLU
00:55
V
18 °C 10 km+ - 340°   340° 5 kt METAR LIPI 212255Z 34005KT CAVOK 18/16 Q1014

21 de maio de 2022

Tempo Código Clima Temp. Visão Nuvens Vento METAR/SPECI
23:55
V
18 °C 10 km+ - 020°   020° 3 kt METAR LIPI 212155Z 02003KT CAVOK 18/17 Q1014
22:55
V
19 °C 10 km+ - 360°   360° 3 kt METAR LIPI 212055Z 36003KT CAVOK 19/17 Q1015 RMK SCT FEW120 SCT200 VIS MIN 9999 WIND THR06 03002KT WIND THR24 36003KT BLU
21:55
V
20 °C 10 km+ - 250°   250° 1 kt METAR LIPI 211955Z 25001KT CAVOK 20/18 Q1014 RMK SCT SCT120 VIS MIN 9999 WIND THR06 15001KT WIND THR24 18001KT BLU
20:55
V
22 °C 10 km+ - 150°   150° 4 kt METAR LIPI 211855Z 15004KT CAVOK 22/18 Q1014 RMK SCT FEW110 VIS MIN 9999 WIND THR06 18004KT WIND THR24 17003KT BLU
19:55
V
24 °C 10 km+ - 140°   140° 5 kt METAR LIPI 211755Z 14005KT CAVOK 24/17 Q1014
18:55
V
27 °C 10 km+ - 090°   090° 4 kt METAR LIPI 211655Z 09004KT CAVOK 27/14 Q1014 RMK FEW FEW200 VIS MIN 9999 WIND THR06 12005KT WIND THR24 10004KT BLU
17:55
V
27 °C 10 km+ - 060°   060° 2 kt METAR LIPI 211555Z 06002KT CAVOK 27/14 Q1014
16:55
V
27 °C 10 km+ - 100°   100° 5 kt METAR LIPI 211455Z 10005KT CAVOK 27/13 Q1015
15:55
V
28 °C 10 km+ - 140°   140° 4 kt METAR LIPI 211355Z 14004KT CAVOK 28/12 Q1016
14:55
V
27 °C 10 km+ - 190°   190° 4 kt METAR LIPI 211255Z 19004KT CAVOK 27/11 Q1016 RMK FEW FEW200 VIS MIN 9999 WIND THR06 18006KT WIND THR24 32004KT BLU
13:55
V
27 °C 10 km+ - 140°   140° 4 kt METAR LIPI 211155Z 14004KT CAVOK 27/10 Q1017
12:55
V
26 °C 10 km+ - 060°   060° 3 kt METAR LIPI 211055Z 06003KT CAVOK 26/07 Q1018 RMK SKC VIS MIN 9999 WIND THR06 22004KT WIND THR24 14004KT BLU
11:55
V
26 °C 10 km+ - 100°   100° 3 kt METAR LIPI 210955Z 10003KT CAVOK 26/06 Q1018 RMK SKC VIS MIN 9999 WIND THR06 11005KT WIND THR24 02002KT BLU
10:55
V
24 °C 10 km+ - 070°   070° 3 kt METAR LIPI 210855Z 07003KT CAVOK 24/05 Q1019 RMK SKC VIS MIN 9999 WIND THR06 10003KT WIND THR24 07004KT BLU
09:55
V
23 °C 10 km+ - 070°   070° 3 kt METAR LIPI 210755Z 07003KT CAVOK 23/06 Q1019 RMK FEW FEW200 VIS MIN 9999 WIND THR06 10003KT WIND THR24 08002KT BLU
08:55
V
21 °C 10 km+ - 060°   060° 3 kt METAR LIPI 210655Z 06003KT CAVOK 21/07 Q1019 RMK SCT FEW120 SCT200 VIS MIN 9999 WIND THR06 08004KT WIND THR24 06003KT BLU
07:55
V
18 °C 10 km+ - 350°   350° 3 kt METAR LIPI 210555Z 35003KT CAVOK 18/12 Q1019
06:55
V
15 °C 10 km+ - 350°   350° 3 kt METAR LIPI 210455Z 35003KT 9999 FEW100 15/12 Q1019 RMK SCT SCT200 VIS MIN 9999 WIND THR06 03004KT WIND THR24 36003KT BLU
05:55
V
14 °C 10 km+ - 340°   340° 4 kt METAR LIPI 210355Z 34004KT CAVOK 14/12 Q1019
04:55
V
14 °C 10 km+ - 360°   360° 3 kt METAR LIPI 210255Z 36003KT CAVOK 14/12 Q1019 RMK SCT SCT200 VIS MIN 9999 WIND THR06 05005KT WIND THR24 03004KT BLU
03:55
V
14 °C 10 km+ - 350°   350° 4 kt METAR LIPI 210155Z 35004KT CAVOK 14/12 Q1019 RMK BKN BKN200 VIS MIN 9999 WIND THR06 03004KT WIND THR24 01003KT BLU
02:55
V
15 °C 10 km+ - 290°   290° 1 kt METAR LIPI 210055Z 29001KT CAVOK 15/12 Q1019
01:55
V
16 °C 10 km+ - 060°   060° 4 kt METAR LIPI 202355Z 06004KT CAVOK 16/12 Q1020
00:55
V
15 °C 10 km+ - 010°   010° 4 kt METAR LIPI 202255Z 01004KT CAVOK 15/13 Q1022

20 de maio de 2022

Tempo Código Clima Temp. Visão Nuvens Vento METAR/SPECI
23:55
V
16 °C 10 km+ - 030°   030° 3 kt METAR LIPI 202155Z 03003KT CAVOK 16/13 Q1021 RMK SKC VIS MIN 9999 WIND THR06 06003KT WIND THR24 05003KT BLU
22:55
V
17 °C 10 km+ - 070°   070° 1 kt METAR LIPI 202055Z 07001KT CAVOK 17/13 Q1022
21:55
V
19 °C 10 km+ - 130°   130° 2 kt METAR LIPI 201955Z 13002KT CAVOK 19/09 Q1022 RMK SKC VIS MIN 9999 WIND THR06 19001KT WIND THR24 15002KT BLU
20:55
V
20 °C 10 km+ - 130°   130° 2 kt METAR LIPI 201855Z 13002KT CAVOK 20/09 Q1022
19:55
V
22 °C 10 km+ - 180°   180° 4 kt METAR LIPI 201755Z 18004KT CAVOK 22/09 Q1022
18:55
V
24 °C 10 km+ - 170°   170° 6 kt METAR LIPI 201655Z 17006KT CAVOK 24/09 Q1022
17:55
V
24 °C 10 km+ - 170°   170° 5 kt METAR LIPI 201555Z 17005KT CAVOK 24/11 Q1022
16:55
V
25 °C 10 km+ - 160°   160° 6 kt METAR LIPI 201455Z 16006KT CAVOK 25/11 Q1023 RMK SKC VIS MIN 9999 WIND THR06 18008KT WIND THR24 19006KT BLU
15:55
V
25 °C 10 km+ - 170°   170° 7 kt METAR LIPI 201355Z 17007KT CAVOK 25/12 Q1024 RMK SKC VIS MIN 9999 WIND THR06 19008KT WIND THR24 19008KT BLU
14:55
V
25 °C 10 km+ - 150°   150° 7 kt METAR LIPI 201255Z 15007KT CAVOK 25/15 Q1024 RMK SKC VIS MIN 9999 WIND THR06 21009KT WIND THR24 18006KT BLU
13:55
V
25 °C 10 km+ - 160°   160° 7 kt METAR LIPI 201155Z 16007KT 9999 FEW060 25/16 Q1025 RMK FEW VIS MIN 9999 WIND THR06 15007KT WIND THR24 18005KT BLU
12:55
V
24 °C 10 km+ - 180°   180° 5 kt METAR LIPI 201055Z 18005KT 9999 FEW060 24/13 Q1025 RMK FEW VIS MIN 9999 WIND THR06 19005KT WIND THR24 17004KT BLU
11:55
V
24 °C 10 km+ - 220°   220° 4 kt METAR LIPI 200955Z 22004KT CAVOK 24/14 Q1026 RMK SKC VIS MIN 9999 WIND THR06 23003KT WIND THR24 20005KT BLU
10:55
V
22 °C 10 km+ - Var   Var 3 kt METAR LIPI 200855Z VRB03KT CAVOK 22/14 Q1026
09:55
V
20 °C 10 km+ - Var   Var 2 kt METAR LIPI 200755Z VRB02KT CAVOK 20/14 Q1026 RMK FEW FEW200 VIS MIN 9999 WIND THR06 VRB02KT WIND THR24 20003KT BLU
08:55
V
19 °C 10 km+ - 080°   080° 3 kt METAR LIPI 200655Z 08003KT CAVOK 19/13 Q1026
07:55
V
17 °C 10 km+ - 040°   040° 4 kt METAR LIPI 200555Z 04004KT CAVOK 17/12 Q1026 RMK SCT SCT200 VIS MIN 9999 WIND THR06 07004KT WIND THR24 05004KT BLU
06:55
V
15 °C 10 km+ - 040°   040° 3 kt METAR LIPI 200455Z 04003KT CAVOK 15/13 Q1026 RMK SCT SCT200 VIS MIN 9999 WIND THR06 07003KT WIND THR24 06004KT BLU
Dados mais antigos

Baixe nosso aplicativo

Fácil acesso a todas as condições meteorológicas da aviação no seu celular e no seu tablet.
Com muitos recursos não disponíveis no site, como suporte offline e uma lista pessoal de aeroportos.

Nós e terceiros acompanhamos seu comportamento na internet em nosso site com cookies. Se você continuar, nós assumimos que você concorda com nossa política de cookies. Saiba mais